sensor_id;sensor_type;location;lat;lon;timestamp;temperature;humidity
1447;DHT22;717;51.522;7.266;2024-02-23T00:01:34;8.20;99.90
1447;DHT22;717;51.522;7.266;2024-02-23T00:04:04;8.10;99.90
1447;DHT22;717;51.522;7.266;2024-02-23T00:06:34;8.00;99.90
1447;DHT22;717;51.522;7.266;2024-02-23T00:09:07;7.90;99.90
1447;DHT22;717;51.522;7.266;2024-02-23T00:11:39;7.80;99.90
1447;DHT22;717;51.522;7.266;2024-02-23T00:14:12;7.70;99.90
1447;DHT22;717;51.522;7.266;2024-02-23T00:16:42;7.80;99.90
1447;DHT22;717;51.522;7.266;2024-02-23T00:19:13;7.70;99.90
1447;DHT22;717;51.522;7.266;2024-02-23T00:21:45;7.70;99.90
1447;DHT22;717;51.522;7.266;2024-02-23T00:24:20;7.60;99.90
1447;DHT22;717;51.522;7.266;2024-02-23T00:26:50;7.60;99.90
1447;DHT22;717;51.522;7.266;2024-02-23T00:29:20;7.60;99.90
1447;DHT22;717;51.522;7.266;2024-02-23T00:31:51;7.60;99.90
1447;DHT22;717;51.522;7.266;2024-02-23T00:34:21;7.70;99.90
1447;DHT22;717;51.522;7.266;2024-02-23T00:36:51;7.70;99.90
1447;DHT22;717;51.522;7.266;2024-02-23T00:39:24;7.60;99.90
1447;DHT22;717;51.522;7.266;2024-02-23T00:41:54;7.60;99.90
1447;DHT22;717;51.522;7.266;2024-02-23T00:44:24;7.60;99.90
1447;DHT22;717;51.522;7.266;2024-02-23T00:46:55;7.50;99.90
1447;DHT22;717;51.522;7.266;2024-02-23T00:49:28;7.50;99.90
1447;DHT22;717;51.522;7.266;2024-02-23T00:51:58;7.60;99.90
1447;DHT22;717;51.522;7.266;2024-02-23T00:54:31;7.70;99.90
1447;DHT22;717;51.522;7.266;2024-02-23T00:57:01;7.70;99.90
1447;DHT22;717;51.522;7.266;2024-02-23T00:59:31;7.70;99.90
1447;DHT22;717;51.522;7.266;2024-02-23T01:02:01;7.80;99.90
1447;DHT22;717;51.522;7.266;2024-02-23T01:04:32;7.80;99.90
1447;DHT22;717;51.522;7.266;2024-02-23T01:07:02;7.70;99.90
1447;DHT22;717;51.522;7.266;2024-02-23T01:09:35;7.60;99.90
1447;DHT22;717;51.522;7.266;2024-02-23T01:12:06;7.60;99.90
1447;DHT22;717;51.522;7.266;2024-02-23T01:14:36;7.60;99.90
1447;DHT22;717;51.522;7.266;2024-02-23T01:17:06;7.60;99.90
1447;DHT22;717;51.522;7.266;2024-02-23T01:19:36;7.60;99.90
1447;DHT22;717;51.522;7.266;2024-02-23T01:22:06;7.60;99.90
1447;DHT22;717;51.522;7.266;2024-02-23T01:24:39;7.70;99.90
1447;DHT22;717;51.522;7.266;2024-02-23T01:27:10;7.70;99.90
1447;DHT22;717;51.522;7.266;2024-02-23T01:29:40;7.70;99.90
1447;DHT22;717;51.522;7.266;2024-02-23T01:32:10;7.80;99.90
1447;DHT22;717;51.522;7.266;2024-02-23T01:34:40;7.80;99.90
1447;DHT22;717;51.522;7.266;2024-02-23T01:37:10;7.80;99.90
1447;DHT22;717;51.522;7.266;2024-02-23T01:39:43;7.80;99.90
1447;DHT22;717;51.522;7.266;2024-02-23T01:42:13;7.80;99.90
1447;DHT22;717;51.522;7.266;2024-02-23T01:44:44;7.80;99.90
1447;DHT22;717;51.522;7.266;2024-02-23T01:47:15;7.80;99.90
1447;DHT22;717;51.522;7.266;2024-02-23T01:49:46;7.90;99.90
1447;DHT22;717;51.522;7.266;2024-02-23T01:52:21;8.00;99.90
1447;DHT22;717;51.522;7.266;2024-02-23T01:54:54;8.00;99.90
1447;DHT22;717;51.522;7.266;2024-02-23T01:57:25;8.10;99.90
1447;DHT22;717;51.522;7.266;2024-02-23T02:00:17;8.10;99.90
1447;DHT22;717;51.522;7.266;2024-02-23T02:02:54;8.10;99.90
1447;DHT22;717;51.522;7.266;2024-02-23T02:05:24;8.10;99.90
1447;DHT22;717;51.522;7.266;2024-02-23T02:07:56;8.20;99.90
1447;DHT22;717;51.522;7.266;2024-02-23T02:10:30;8.10;99.90
1447;DHT22;717;51.522;7.266;2024-02-23T02:13:03;8.10;99.90
1447;DHT22;717;51.522;7.266;2024-02-23T02:15:34;8.10;99.90
1447;DHT22;717;51.522;7.266;2024-02-23T02:18:05;8.10;99.90
1447;DHT22;717;51.522;7.266;2024-02-23T02:20:36;8.00;99.90
1447;DHT22;717;51.522;7.266;2024-02-23T02:23:07;8.00;99.90
1447;DHT22;717;51.522;7.266;2024-02-23T02:25:40;8.10;99.90
1447;DHT22;717;51.522;7.266;2024-02-23T02:28:10;8.10;99.90
1447;DHT22;717;51.522;7.266;2024-02-23T02:30:44;8.10;99.90
1447;DHT22;717;51.522;7.266;2024-02-23T02:33:14;8.10;99.90
1447;DHT22;717;51.522;7.266;2024-02-23T02:35:44;8.10;99.90
1447;DHT22;717;51.522;7.266;2024-02-23T02:38:14;8.10;99.90
1447;DHT22;717;51.522;7.266;2024-02-23T02:40:47;8.00;99.90
1447;DHT22;717;51.522;7.266;2024-02-23T02:43:17;8.10;99.90
1447;DHT22;717;51.522;7.266;2024-02-23T02:45:47;8.00;99.90
1447;DHT22;717;51.522;7.266;2024-02-23T02:48:17;8.10;99.90
1447;DHT22;717;51.522;7.266;2024-02-23T02:50:48;8.10;99.90
1447;DHT22;717;51.522;7.266;2024-02-23T02:53:20;8.10;99.90
1447;DHT22;717;51.522;7.266;2024-02-23T02:55:53;8.10;99.90
1447;DHT22;717;51.522;7.266;2024-02-23T02:58:23;8.10;99.90
1447;DHT22;717;51.522;7.266;2024-02-23T03:00:53;8.20;99.90
1447;DHT22;717;51.522;7.266;2024-02-23T03:03:23;8.20;99.90
1447;DHT22;717;51.522;7.266;2024-02-23T03:05:53;8.20;99.90
1447;DHT22;717;51.522;7.266;2024-02-23T03:08:23;8.30;99.90
1447;DHT22;717;51.522;7.266;2024-02-23T03:10:56;8.30;99.90
1447;DHT22;717;51.522;7.266;2024-02-23T03:13:26;8.30;99.90
1447;DHT22;717;51.522;7.266;2024-02-23T03:15:56;8.20;99.90
1447;DHT22;717;51.522;7.266;2024-02-23T03:18:26;8.20;99.90
1447;DHT22;717;51.522;7.266;2024-02-23T03:20:57;8.20;99.90
1447;DHT22;717;51.522;7.266;2024-02-23T03:23:27;8.30;99.90
1447;DHT22;717;51.522;7.266;2024-02-23T03:26:00;8.30;99.90
1447;DHT22;717;51.522;7.266;2024-02-23T03:28:30;8.30;99.90
1447;DHT22;717;51.522;7.266;2024-02-23T03:31:00;8.30;99.90
1447;DHT22;717;51.522;7.266;2024-02-23T03:33:30;8.30;99.90
1447;DHT22;717;51.522;7.266;2024-02-23T03:36:00;8.30;99.90
1447;DHT22;717;51.522;7.266;2024-02-23T03:38:31;8.20;99.90
1447;DHT22;717;51.522;7.266;2024-02-23T03:41:04;8.30;99.90
1447;DHT22;717;51.522;7.266;2024-02-23T03:43:34;8.20;99.90
1447;DHT22;717;51.522;7.266;2024-02-23T03:46:06;8.20;99.90
1447;DHT22;717;51.522;7.266;2024-02-23T03:48:36;8.20;99.90
1447;DHT22;717;51.522;7.266;2024-02-23T03:51:08;8.20;99.90
1447;DHT22;717;51.522;7.266;2024-02-23T03:53:38;8.30;99.90
1447;DHT22;717;51.522;7.266;2024-02-23T03:56:11;8.30;99.90
1447;DHT22;717;51.522;7.266;2024-02-23T03:58:41;8.30;99.90
1447;DHT22;717;51.522;7.266;2024-02-23T04:01:11;8.30;99.90
1447;DHT22;717;51.522;7.266;2024-02-23T04:03:41;8.30;99.90
1447;DHT22;717;51.522;7.266;2024-02-23T04:06:11;8.30;99.90
1447;DHT22;717;51.522;7.266;2024-02-23T04:08:41;8.30;99.90
1447;DHT22;717;51.522;7.266;2024-02-23T04:11:17;8.30;99.90
1447;DHT22;717;51.522;7.266;2024-02-23T04:13:47;8.30;99.90
1447;DHT22;717;51.522;7.266;2024-02-23T04:16:22;8.30;99.90
1447;DHT22;717;51.522;7.266;2024-02-23T04:18:53;8.40;99.90
1447;DHT22;717;51.522;7.266;2024-02-23T04:21:24;8.50;99.90
1447;DHT22;717;51.522;7.266;2024-02-23T04:23:54;8.50;99.90
1447;DHT22;717;51.522;7.266;2024-02-23T04:26:27;8.50;99.90
1447;DHT22;717;51.522;7.266;2024-02-23T04:28:57;8.50;99.90
1447;DHT22;717;51.522;7.266;2024-02-23T04:31:27;8.50;99.90
1447;DHT22;717;51.522;7.266;2024-02-23T04:33:58;8.60;99.90
1447;DHT22;717;51.522;7.266;2024-02-23T04:36:28;8.50;99.90
1447;DHT22;717;51.522;7.266;2024-02-23T04:38:58;8.50;99.90
1447;DHT22;717;51.522;7.266;2024-02-23T04:41:31;8.50;99.90
1447;DHT22;717;51.522;7.266;2024-02-23T04:44:01;8.60;99.90
1447;DHT22;717;51.522;7.266;2024-02-23T04:46:31;8.60;99.90
1447;DHT22;717;51.522;7.266;2024-02-23T04:49:02;8.60;99.90
1447;DHT22;717;51.522;7.266;2024-02-23T04:51:32;8.60;99.90
1447;DHT22;717;51.522;7.266;2024-02-23T04:54:03;8.60;99.90
1447;DHT22;717;51.522;7.266;2024-02-23T04:56:35;8.60;99.90
1447;DHT22;717;51.522;7.266;2024-02-23T04:59:06;8.70;99.90
1447;DHT22;717;51.522;7.266;2024-02-23T05:01:36;8.60;99.90
1447;DHT22;717;51.522;7.266;2024-02-23T05:04:07;8.60;99.90
1447;DHT22;717;51.522;7.266;2024-02-23T05:06:37;8.70;99.90
1447;DHT22;717;51.522;7.266;2024-02-23T05:09:07;8.70;99.90
1447;DHT22;717;51.522;7.266;2024-02-23T05:11:40;8.70;99.90
1447;DHT22;717;51.522;7.266;2024-02-23T05:14:11;8.70;99.90
1447;DHT22;717;51.522;7.266;2024-02-23T05:16:41;8.70;99.90
1447;DHT22;717;51.522;7.266;2024-02-23T05:19:11;8.80;99.90
1447;DHT22;717;51.522;7.266;2024-02-23T05:21:41;8.80;99.90
1447;DHT22;717;51.522;7.266;2024-02-23T05:24:12;8.80;99.90
1447;DHT22;717;51.522;7.266;2024-02-23T05:26:44;8.80;99.90
1447;DHT22;717;51.522;7.266;2024-02-23T05:29:15;8.80;99.90
1447;DHT22;717;51.522;7.266;2024-02-23T05:31:48;8.80;99.90
1447;DHT22;717;51.522;7.266;2024-02-23T05:34:16;8.80;99.90
1447;DHT22;717;51.522;7.266;2024-02-23T05:36:47;8.70;99.90
1447;DHT22;717;51.522;7.266;2024-02-23T05:39:17;8.70;99.90
1447;DHT22;717;51.522;7.266;2024-02-23T05:41:50;8.70;99.90
1447;DHT22;717;51.522;7.266;2024-02-23T05:44:20;8.70;99.90
1447;DHT22;717;51.522;7.266;2024-02-23T05:46:50;8.60;99.90
1447;DHT22;717;51.522;7.266;2024-02-23T05:49:20;8.70;99.90
1447;DHT22;717;51.522;7.266;2024-02-23T05:51:51;8.70;99.90
1447;DHT22;717;51.522;7.266;2024-02-23T05:54:22;8.70;99.90
1447;DHT22;717;51.522;7.266;2024-02-23T05:56:54;8.80;99.90
1447;DHT22;717;51.522;7.266;2024-02-23T05:59:25;8.70;99.90
1447;DHT22;717;51.522;7.266;2024-02-23T06:01:55;8.80;99.90
1447;DHT22;717;51.522;7.266;2024-02-23T06:04:26;8.80;99.90
1447;DHT22;717;51.522;7.266;2024-02-23T06:06:56;8.80;99.90
1447;DHT22;717;51.522;7.266;2024-02-23T06:09:27;8.90;99.90
1447;DHT22;717;51.522;7.266;2024-02-23T06:12:00;8.80;99.90
1447;DHT22;717;51.522;7.266;2024-02-23T06:14:30;8.70;99.90
1447;DHT22;717;51.522;7.266;2024-02-23T06:17:00;8.80;99.90
1447;DHT22;717;51.522;7.266;2024-02-23T06:19:31;8.80;99.90
1447;DHT22;717;51.522;7.266;2024-02-23T06:22:01;8.70;99.90
1447;DHT22;717;51.522;7.266;2024-02-23T06:24:31;8.80;99.90
1447;DHT22;717;51.522;7.266;2024-02-23T06:27:04;8.70;99.90
1447;DHT22;717;51.522;7.266;2024-02-23T06:29:35;8.70;99.90
1447;DHT22;717;51.522;7.266;2024-02-23T06:32:06;8.70;99.90
1447;DHT22;717;51.522;7.266;2024-02-23T06:34:36;8.70;99.90
1447;DHT22;717;51.522;7.266;2024-02-23T06:37:06;8.70;99.90
1447;DHT22;717;51.522;7.266;2024-02-23T06:39:36;8.70;99.90
1447;DHT22;717;51.522;7.266;2024-02-23T06:42:09;8.80;99.90
1447;DHT22;717;51.522;7.266;2024-02-23T06:44:39;8.80;99.90
1447;DHT22;717;51.522;7.266;2024-02-23T06:47:10;8.80;99.90
1447;DHT22;717;51.522;7.266;2024-02-23T06:49:41;8.80;99.90
1447;DHT22;717;51.522;7.266;2024-02-23T06:52:12;8.70;99.90
1447;DHT22;717;51.522;7.266;2024-02-23T06:54:42;8.80;99.90
1447;DHT22;717;51.522;7.266;2024-02-23T06:57:14;8.90;99.90
1447;DHT22;717;51.522;7.266;2024-02-23T06:59:44;8.90;99.90
1447;DHT22;717;51.522;7.266;2024-02-23T07:02:14;8.90;99.90
1447;DHT22;717;51.522;7.266;2024-02-23T07:04:45;8.90;99.90
1447;DHT22;717;51.522;7.266;2024-02-23T07:07:15;8.90;99.90
1447;DHT22;717;51.522;7.266;2024-02-23T07:09:44;8.90;99.90
1447;DHT22;717;51.522;7.266;2024-02-23T07:12:17;8.90;99.90
1447;DHT22;717;51.522;7.266;2024-02-23T07:14:48;8.90;99.90
1447;DHT22;717;51.522;7.266;2024-02-23T07:17:18;9.00;99.90
1447;DHT22;717;51.522;7.266;2024-02-23T07:19:49;9.00;99.90
1447;DHT22;717;51.522;7.266;2024-02-23T07:22:20;9.10;99.90
1447;DHT22;717;51.522;7.266;2024-02-23T07:24:50;9.10;99.90
1447;DHT22;717;51.522;7.266;2024-02-23T07:27:23;9.10;99.90
1447;DHT22;717;51.522;7.266;2024-02-23T07:29:53;9.10;99.90
1447;DHT22;717;51.522;7.266;2024-02-23T07:32:23;9.10;99.90
1447;DHT22;717;51.522;7.266;2024-02-23T07:34:54;9.00;99.90
1447;DHT22;717;51.522;7.266;2024-02-23T07:37:26;8.90;99.90
1447;DHT22;717;51.522;7.266;2024-02-23T07:39:56;9.00;99.90
1447;DHT22;717;51.522;7.266;2024-02-23T07:42:29;9.00;99.90
1447;DHT22;717;51.522;7.266;2024-02-23T07:44:59;9.00;99.90
1447;DHT22;717;51.522;7.266;2024-02-23T07:47:31;9.00;99.90
1447;DHT22;717;51.522;7.266;2024-02-23T07:50:02;9.00;99.90
1447;DHT22;717;51.522;7.266;2024-02-23T07:52:38;9.10;99.90
1447;DHT22;717;51.522;7.266;2024-02-23T08:15:07;9.20;99.90
1447;DHT22;717;51.522;7.266;2024-02-23T08:17:38;9.20;99.90
1447;DHT22;717;51.522;7.266;2024-02-23T08:20:09;9.20;99.90
1447;DHT22;717;51.522;7.266;2024-02-23T08:22:39;9.20;99.90
1447;DHT22;717;51.522;7.266;2024-02-23T08:25:09;9.30;99.90
1447;DHT22;717;51.522;7.266;2024-02-23T08:27:41;9.30;99.90
1447;DHT22;717;51.522;7.266;2024-02-23T08:30:14;9.40;99.90
1447;DHT22;717;51.522;7.266;2024-02-23T08:32:46;9.40;99.90
1447;DHT22;717;51.522;7.266;2024-02-23T08:35:16;9.50;99.90
1447;DHT22;717;51.522;7.266;2024-02-23T08:37:46;9.50;99.90
1447;DHT22;717;51.522;7.266;2024-02-23T08:40:16;9.60;99.90
1447;DHT22;717;51.522;7.266;2024-02-23T08:42:47;9.50;99.90
1447;DHT22;717;51.522;7.266;2024-02-23T08:45:20;9.50;99.90
1447;DHT22;717;51.522;7.266;2024-02-23T08:47:50;9.50;99.90
1447;DHT22;717;51.522;7.266;2024-02-23T08:50:20;9.60;99.90
1447;DHT22;717;51.522;7.266;2024-02-23T08:52:51;9.50;99.90
1447;DHT22;717;51.522;7.266;2024-02-23T08:55:21;9.60;99.90
1447;DHT22;717;51.522;7.266;2024-02-23T08:57:51;9.60;99.90
1447;DHT22;717;51.522;7.266;2024-02-23T09:00:24;9.60;99.90
1447;DHT22;717;51.522;7.266;2024-02-23T09:02:54;9.60;99.90
1447;DHT22;717;51.522;7.266;2024-02-23T09:05:24;9.70;99.90
1447;DHT22;717;51.522;7.266;2024-02-23T09:07:55;9.70;99.90
1447;DHT22;717;51.522;7.266;2024-02-23T09:10:25;9.80;99.90
1447;DHT22;717;51.522;7.266;2024-02-23T09:12:55;9.70;99.90
1447;DHT22;717;51.522;7.266;2024-02-23T09:15:28;9.70;99.90
1447;DHT22;717;51.522;7.266;2024-02-23T09:17:58;9.70;99.90
1447;DHT22;717;51.522;7.266;2024-02-23T09:20:28;9.80;99.90
1447;DHT22;717;51.522;7.266;2024-02-23T09:22:59;9.70;99.90
1447;DHT22;717;51.522;7.266;2024-02-23T09:25:30;9.80;99.90
1447;DHT22;717;51.522;7.266;2024-02-23T09:28:00;9.90;99.90
1447;DHT22;717;51.522;7.266;2024-02-23T09:30:33;9.90;99.90
1447;DHT22;717;51.522;7.266;2024-02-23T09:33:04;9.90;99.90
1447;DHT22;717;51.522;7.266;2024-02-23T09:35:35;10.00;99.90
1447;DHT22;717;51.522;7.266;2024-02-23T09:38:06;10.00;99.90
1447;DHT22;717;51.522;7.266;2024-02-23T09:40:36;10.00;99.90
1447;DHT22;717;51.522;7.266;2024-02-23T09:43:08;10.00;99.90
1447;DHT22;717;51.522;7.266;2024-02-23T09:45:41;10.00;99.90
1447;DHT22;717;51.522;7.266;2024-02-23T09:48:12;10.10;99.90
1447;DHT22;717;51.522;7.266;2024-02-23T09:50:44;10.10;99.90
1447;DHT22;717;51.522;7.266;2024-02-23T09:53:15;10.10;99.90
1447;DHT22;717;51.522;7.266;2024-02-23T09:55:49;10.20;99.90
1447;DHT22;717;51.522;7.266;2024-02-23T09:58:20;10.10;99.90
1447;DHT22;717;51.522;7.266;2024-02-23T10:00:56;10.10;99.90
1447;DHT22;717;51.522;7.266;2024-02-23T10:03:29;10.10;99.90
1447;DHT22;717;51.522;7.266;2024-02-23T10:06:00;10.20;99.90
1447;DHT22;717;51.522;7.266;2024-02-23T10:08:32;10.20;99.90
1447;DHT22;717;51.522;7.266;2024-02-23T10:11:03;10.20;99.90
1447;DHT22;717;51.522;7.266;2024-02-23T10:13:34;10.20;99.90
1447;DHT22;717;51.522;7.266;2024-02-23T10:16:08;10.20;99.90
1447;DHT22;717;51.522;7.266;2024-02-23T10:18:42;10.20;99.90
1447;DHT22;717;51.522;7.266;2024-02-23T10:21:12;10.30;99.90
1447;DHT22;717;51.522;7.266;2024-02-23T10:23:44;10.30;99.90
1447;DHT22;717;51.522;7.266;2024-02-23T10:26:14;10.30;99.90
1447;DHT22;717;51.522;7.266;2024-02-23T10:28:47;10.30;99.90
1447;DHT22;717;51.522;7.266;2024-02-23T10:31:22;10.50;99.90
1447;DHT22;717;51.522;7.266;2024-02-23T10:33:54;10.50;99.90
1447;DHT22;717;51.522;7.266;2024-02-23T10:36:29;10.50;99.90
1447;DHT22;717;51.522;7.266;2024-02-23T10:39:02;10.60;99.90
1447;DHT22;717;51.522;7.266;2024-02-23T10:41:35;10.50;99.90
1447;DHT22;717;51.522;7.266;2024-02-23T10:44:07;10.50;99.90
1447;DHT22;717;51.522;7.266;2024-02-23T10:46:41;10.50;99.90
1447;DHT22;717;51.522;7.266;2024-02-23T10:49:14;10.50;99.90
1447;DHT22;717;51.522;7.266;2024-02-23T10:51:47;10.60;99.90
1447;DHT22;717;51.522;7.266;2024-02-23T10:54:19;10.60;99.90
1447;DHT22;717;51.522;7.266;2024-02-23T10:56:50;10.70;99.90
1447;DHT22;717;51.522;7.266;2024-02-23T10:59:23;10.70;99.90
1447;DHT22;717;51.522;7.266;2024-02-23T11:01:57;10.80;99.90
1447;DHT22;717;51.522;7.266;2024-02-23T11:04:30;10.80;99.90
1447;DHT22;717;51.522;7.266;2024-02-23T11:07:01;10.80;99.90
1447;DHT22;717;51.522;7.266;2024-02-23T11:09:35;10.80;99.90
1447;DHT22;717;51.522;7.266;2024-02-23T11:12:06;10.90;99.90
1447;DHT22;717;51.522;7.266;2024-02-23T11:14:38;10.90;99.90
1447;DHT22;717;51.522;7.266;2024-02-23T11:17:18;11.00;99.90
1447;DHT22;717;51.522;7.266;2024-02-23T11:19:49;11.10;99.90
1447;DHT22;717;51.522;7.266;2024-02-23T11:22:24;11.10;99.90
1447;DHT22;717;51.522;7.266;2024-02-23T11:25:06;11.20;99.90
1447;DHT22;717;51.522;7.266;2024-02-23T11:27:38;11.30;99.90
1447;DHT22;717;51.522;7.266;2024-02-23T11:30:11;11.30;99.90
1447;DHT22;717;51.522;7.266;2024-02-23T11:32:45;11.30;99.90
1447;DHT22;717;51.522;7.266;2024-02-23T11:35:18;11.30;99.90
1447;DHT22;717;51.522;7.266;2024-02-23T11:37:52;11.20;99.90
1447;DHT22;717;51.522;7.266;2024-02-23T11:40:27;11.30;99.90
1447;DHT22;717;51.522;7.266;2024-02-23T11:42:57;11.30;99.90
1447;DHT22;717;51.522;7.266;2024-02-23T11:45:29;11.30;99.90
1447;DHT22;717;51.522;7.266;2024-02-23T11:48:05;11.30;99.90
1447;DHT22;717;51.522;7.266;2024-02-23T11:50:36;11.30;99.90
1447;DHT22;717;51.522;7.266;2024-02-23T11:53:06;11.30;99.90
1447;DHT22;717;51.522;7.266;2024-02-23T11:55:36;11.30;99.90
1447;DHT22;717;51.522;7.266;2024-02-23T11:58:07;11.30;99.90
1447;DHT22;717;51.522;7.266;2024-02-23T12:00:45;11.30;99.90
1447;DHT22;717;51.522;7.266;2024-02-23T12:03:18;11.30;99.90
1447;DHT22;717;51.522;7.266;2024-02-23T12:05:49;11.30;99.90
1447;DHT22;717;51.522;7.266;2024-02-23T12:08:20;11.20;99.90
1447;DHT22;717;51.522;7.266;2024-02-23T12:10:51;11.10;99.90
1447;DHT22;717;51.522;7.266;2024-02-23T12:13:22;11.10;99.90
1447;DHT22;717;51.522;7.266;2024-02-23T12:15:54;11.10;99.90
1447;DHT22;717;51.522;7.266;2024-02-23T12:18:26;11.10;99.90
1447;DHT22;717;51.522;7.266;2024-02-23T12:20:59;11.10;99.90
1447;DHT22;717;51.522;7.266;2024-02-23T12:23:39;11.00;99.90
1447;DHT22;717;51.522;7.266;2024-02-23T12:26:09;11.10;99.90
1447;DHT22;717;51.522;7.266;2024-02-23T12:28:41;11.10;99.90
1447;DHT22;717;51.522;7.266;2024-02-23T12:31:11;11.10;99.90
1447;DHT22;717;51.522;7.266;2024-02-23T12:33:46;11.10;99.90
1447;DHT22;717;51.522;7.266;2024-02-23T12:36:16;11.20;99.90
1447;DHT22;717;51.522;7.266;2024-02-23T12:38:47;11.10;99.90
1447;DHT22;717;51.522;7.266;2024-02-23T12:41:17;11.10;99.90
1447;DHT22;717;51.522;7.266;2024-02-23T12:43:48;11.20;99.90
1447;DHT22;717;51.522;7.266;2024-02-23T12:46:20;11.30;99.90
1447;DHT22;717;51.522;7.266;2024-02-23T12:48:53;11.20;99.90
1447;DHT22;717;51.522;7.266;2024-02-23T12:51:25;11.20;99.90
1447;DHT22;717;51.522;7.266;2024-02-23T12:53:56;11.20;99.90
1447;DHT22;717;51.522;7.266;2024-02-23T12:56:26;11.10;99.90
1447;DHT22;717;51.522;7.266;2024-02-23T12:58:56;11.20;99.90
1447;DHT22;717;51.522;7.266;2024-02-23T13:01:27;11.20;99.90
1447;DHT22;717;51.522;7.266;2024-02-23T13:04:01;11.30;99.90
1447;DHT22;717;51.522;7.266;2024-02-23T13:06:37;11.30;99.90
1447;DHT22;717;51.522;7.266;2024-02-23T13:09:08;11.30;99.90
1447;DHT22;717;51.522;7.266;2024-02-23T13:11:39;11.30;99.90
1447;DHT22;717;51.522;7.266;2024-02-23T13:14:10;11.30;99.90
1447;DHT22;717;51.522;7.266;2024-02-23T13:16:40;11.30;99.90
1447;DHT22;717;51.522;7.266;2024-02-23T13:19:13;11.30;99.90
1447;DHT22;717;51.522;7.266;2024-02-23T13:21:43;11.30;99.90
1447;DHT22;717;51.522;7.266;2024-02-23T13:24:13;11.30;99.90
1447;DHT22;717;51.522;7.266;2024-02-23T13:26:43;11.30;99.90
1447;DHT22;717;51.522;7.266;2024-02-23T13:29:13;11.30;99.90
1447;DHT22;717;51.522;7.266;2024-02-23T13:31:44;11.40;99.90
1447;DHT22;717;51.522;7.266;2024-02-23T13:34:16;11.30;99.90
1447;DHT22;717;51.522;7.266;2024-02-23T13:36:47;11.20;99.90
1447;DHT22;717;51.522;7.266;2024-02-23T13:39:19;11.20;99.90
1447;DHT22;717;51.522;7.266;2024-02-23T13:41:49;11.30;99.90
1447;DHT22;717;51.522;7.266;2024-02-23T13:44:19;11.30;99.90
1447;DHT22;717;51.522;7.266;2024-02-23T13:46:50;11.30;99.90
1447;DHT22;717;51.522;7.266;2024-02-23T13:49:22;11.30;99.90
1447;DHT22;717;51.522;7.266;2024-02-23T13:51:53;11.30;99.90
1447;DHT22;717;51.522;7.266;2024-02-23T13:54:23;11.30;99.90
1447;DHT22;717;51.522;7.266;2024-02-23T13:56:53;11.20;99.90
1447;DHT22;717;51.522;7.266;2024-02-23T13:59:23;11.20;99.90
1447;DHT22;717;51.522;7.266;2024-02-23T14:01:53;11.20;99.90
1447;DHT22;717;51.522;7.266;2024-02-23T14:04:26;11.20;99.90
1447;DHT22;717;51.522;7.266;2024-02-23T14:06:56;11.30;99.90
1447;DHT22;717;51.522;7.266;2024-02-23T14:09:26;11.30;99.90
1447;DHT22;717;51.522;7.266;2024-02-23T14:11:57;11.40;99.90
1447;DHT22;717;51.522;7.266;2024-02-23T14:14:27;11.40;99.90
1447;DHT22;717;51.522;7.266;2024-02-23T14:16:57;11.40;99.90
1447;DHT22;717;51.522;7.266;2024-02-23T14:19:30;11.40;99.90
1447;DHT22;717;51.522;7.266;2024-02-23T14:22:03;11.40;99.90
1447;DHT22;717;51.522;7.266;2024-02-23T14:24:33;11.50;99.90
1447;DHT22;717;51.522;7.266;2024-02-23T14:27:04;11.50;99.90
1447;DHT22;717;51.522;7.266;2024-02-23T14:29:34;11.50;99.90
1447;DHT22;717;51.522;7.266;2024-02-23T14:32:05;11.60;99.90
1447;DHT22;717;51.522;7.266;2024-02-23T14:34:38;11.60;99.90
1447;DHT22;717;51.522;7.266;2024-02-23T14:37:08;11.70;99.90
1447;DHT22;717;51.522;7.266;2024-02-23T14:39:39;11.70;99.90
1447;DHT22;717;51.522;7.266;2024-02-23T14:42:13;11.70;99.90
1447;DHT22;717;51.522;7.266;2024-02-23T14:44:43;11.80;99.90
1447;DHT22;717;51.522;7.266;2024-02-23T14:47:13;11.80;99.90
1447;DHT22;717;51.522;7.266;2024-02-23T14:49:50;11.80;99.90
1447;DHT22;717;51.522;7.266;2024-02-23T14:52:20;11.80;99.90
1447;DHT22;717;51.522;7.266;2024-02-23T14:54:51;11.90;99.90
1447;DHT22;717;51.522;7.266;2024-02-23T14:57:21;11.90;99.90
1447;DHT22;717;51.522;7.266;2024-02-23T14:59:51;12.00;99.90
1447;DHT22;717;51.522;7.266;2024-02-23T15:02:22;12.00;99.90
1447;DHT22;717;51.522;7.266;2024-02-23T15:04:55;12.00;99.90
1447;DHT22;717;51.522;7.266;2024-02-23T15:07:25;12.00;99.90
1447;DHT22;717;51.522;7.266;2024-02-23T15:09:56;12.00;99.90
1447;DHT22;717;51.522;7.266;2024-02-23T15:12:27;12.00;99.90
1447;DHT22;717;51.522;7.266;2024-02-23T15:14:57;12.00;99.90
1447;DHT22;717;51.522;7.266;2024-02-23T15:17:28;12.00;99.90
1447;DHT22;717;51.522;7.266;2024-02-23T15:20:01;12.00;99.90
1447;DHT22;717;51.522;7.266;2024-02-23T15:22:31;12.00;99.90
1447;DHT22;717;51.522;7.266;2024-02-23T15:25:02;12.00;99.90
1447;DHT22;717;51.522;7.266;2024-02-23T15:27:33;12.00;99.90
1447;DHT22;717;51.522;7.266;2024-02-23T15:30:06;12.00;99.90
1447;DHT22;717;51.522;7.266;2024-02-23T15:32:38;12.00;99.90
1447;DHT22;717;51.522;7.266;2024-02-23T15:35:12;12.00;99.90
1447;DHT22;717;51.522;7.266;2024-02-23T15:37:42;12.00;99.90
1447;DHT22;717;51.522;7.266;2024-02-23T15:40:12;12.00;99.90
1447;DHT22;717;51.522;7.266;2024-02-23T15:42:42;11.90;99.90
1447;DHT22;717;51.522;7.266;2024-02-23T15:45:13;11.80;99.90
1447;DHT22;717;51.522;7.266;2024-02-23T15:47:43;11.80;99.90
1447;DHT22;717;51.522;7.266;2024-02-23T15:50:16;11.80;99.90
1447;DHT22;717;51.522;7.266;2024-02-23T15:53:07;11.70;99.90
1447;DHT22;717;51.522;7.266;2024-02-23T15:55:38;11.70;99.90
1447;DHT22;717;51.522;7.266;2024-02-23T15:58:08;11.80;99.90
1447;DHT22;717;51.522;7.266;2024-02-23T16:00:39;11.80;99.90
1447;DHT22;717;51.522;7.266;2024-02-23T16:03:09;11.80;99.90
1447;DHT22;717;51.522;7.266;2024-02-23T16:05:42;11.80;99.90
1447;DHT22;717;51.522;7.266;2024-02-23T16:08:13;11.70;99.90
1447;DHT22;717;51.522;7.266;2024-02-23T16:10:43;11.60;99.90
1447;DHT22;717;51.522;7.266;2024-02-23T16:13:14;11.40;99.90
1447;DHT22;717;51.522;7.266;2024-02-23T16:15:45;11.30;99.90
1447;DHT22;717;51.522;7.266;2024-02-23T16:18:15;11.30;99.90
1447;DHT22;717;51.522;7.266;2024-02-23T16:20:48;11.20;99.90
1447;DHT22;717;51.522;7.266;2024-02-23T16:23:19;11.20;99.90
1447;DHT22;717;51.522;7.266;2024-02-23T16:25:50;11.30;99.90
1447;DHT22;717;51.522;7.266;2024-02-23T16:28:20;11.20;99.90
1447;DHT22;717;51.522;7.266;2024-02-23T16:30:50;11.20;99.90
1447;DHT22;717;51.522;7.266;2024-02-23T16:33:21;11.30;99.90
1447;DHT22;717;51.522;7.266;2024-02-23T16:35:54;11.30;99.90
1447;DHT22;717;51.522;7.266;2024-02-23T16:38:26;11.40;99.90
1447;DHT22;717;51.522;7.266;2024-02-23T16:40:57;11.40;99.90
1447;DHT22;717;51.522;7.266;2024-02-23T16:43:27;11.40;99.90
1447;DHT22;717;51.522;7.266;2024-02-23T16:45:58;11.40;99.90
1447;DHT22;717;51.522;7.266;2024-02-23T16:48:28;11.50;99.90
1447;DHT22;717;51.522;7.266;2024-02-23T16:51:01;11.50;99.90
1447;DHT22;717;51.522;7.266;2024-02-23T16:53:31;11.50;99.90
1447;DHT22;717;51.522;7.266;2024-02-23T16:56:02;11.50;99.90
1447;DHT22;717;51.522;7.266;2024-02-23T16:58:32;11.30;99.90
1447;DHT22;717;51.522;7.266;2024-02-23T17:01:05;11.30;99.90
1447;DHT22;717;51.522;7.266;2024-02-23T17:03:36;11.30;99.90
1447;DHT22;717;51.522;7.266;2024-02-23T17:06:09;11.30;99.90
1447;DHT22;717;51.522;7.266;2024-02-23T17:08:39;11.30;99.90
1447;DHT22;717;51.522;7.266;2024-02-23T17:11:09;11.20;99.90
1447;DHT22;717;51.522;7.266;2024-02-23T17:13:40;11.20;99.90